Louisburg, NC

9:45 PM EST on December 25, 2014 (GMT -0500)
Henderson-Oxford | Change Station
CLOSE
Current Station
Airport
Location: Oxford,
Elevation: 528 ft
Nearby Weather Stations

Elev 528 ft 36.36 °N, 78.53 °W | Updated 10 minutes ago

Clear
Clear
39 °F
Feels Like 39 °F
N
0
Wind Variable Wind from North

Today
High -- | Low -- °F
--% Chance of Precip.
Yesterday
High -- | Low -- °F
Precip. -- in
7:22 AM 5:04 PM
Waxing Crescent, 21% visible
Pressure 30.24 in
Visibility 10.0 miles
Clouds Clear
Dew Point 32 °F
Humidity 75%
Rainfall 0.06 in
Snow Depth Not available.
UV 0 out of 12
Pollen 1.70 out of 12
Air Quality Not available.
Flu Activity Not available.
METAR KHNZ 260235Z AUTO 00000KT 10SM CLR 04/00 A3024 RMK AO2 T00400000

More Conditions Fewer Conditions

Pressure 30.24 in
Visibility 10.0 miles
Clouds Clear
Dew Point 32 °F
Humidity 75%
Rainfall 0.06 in
Snow Depth Not available.
UV 0 out of 12
Pollen 1.70 out of 12
Air Quality Not available.
Flu Activity Not available.
METAR KHNZ 260235Z AUTO 00000KT 10SM CLR 04/00 A3024 RMK AO2 T00400000

More Conditions Fewer Conditions

10-Day Weather Forecast

Almanac

Astronomy

Dec. 25, 2014 Rise Set
Actual Time
Civil Twilight
Nautical Twilight
Astronomical Twilight
Moon
Length of Visible Light
Length of Day
Tomorrow will be .
, % of the Moon is Illuminated

Today's Extremes

State Highs State Lows

Community

WunderPhotos

Upload Photos

1,780,519 photos uploaded!

WunderBlogs® & News

Nearby

Air Quality

  Air Quality AQ Index Pollutant
Not available.

Snow Depth

Station Depth Elevation

Earthquake Activity

City Distance Mag. Time & Date
Minimum magnitude displayed is 2.5.

Coastal Water Temperatures

Place Temperature

Nearby Weather Stations